Time;durP1;ratioP1;P1;durP2;ratioP2;P2;SDS_P1;SDS_P2;PMS_P1;PMS_P2;Temp;Humidity;BMP_temperature;BMP_pressure;BME280_temperature;BME280_humidity;BME280_pressure;Samples;Min_cycle;Max_cycle;Signal;HPM_P1;HPM_P2
2023/08/19 00:00:13;;;;;;;;;61.50;50.50;;;;;24.51;53.73;99268.28;5039692;28;8842;-80
2023/08/19 00:03:02;;;;;;;;;60.75;49.00;;;;;24.52;53.74;99266.44;5090884;28;8939;-78
2023/08/19 00:05:33;;;;;;;;;60.25;49.50;;;;;24.45;54.44;99258.06;5042628;28;9003;-79
2023/08/19 00:08:03;;;;;;;;;64.33;52.00;;;;;24.42;54.37;99260.13;5091136;28;8968;-77
2023/08/19 00:10:32;;;;;;;;;61.75;47.75;;;;;24.49;53.93;99266.69;5090865;28;8932;-79
2023/08/19 00:13:01;;;;;;;;;58.00;47.00;;;;;24.56;54.18;99270.56;5090518;28;8877;-78
2023/08/19 00:15:30;;;;;;;;;63.33;51.00;;;;;24.60;53.80;99271.16;5091399;28;8829;-77
2023/08/19 00:18:00;;;;;;;;;65.67;53.33;;;;;24.57;54.02;99266.91;5072862;28;8955;-81
2023/08/19 00:20:29;;;;;;;;;61.00;49.33;;;;;24.55;54.26;99269.72;5090555;28;9182;-77
2023/08/19 00:23:00;;;;;;;;;61.67;50.67;;;;;24.58;54.03;99270.44;5090650;28;8933;-79
2023/08/19 00:25:29;;;;;;;;;62.50;50.50;;;;;24.57;54.18;99276.81;5090729;28;8920;-80
2023/08/19 00:27:59;;;;;;;;;61.75;50.50;;;;;24.59;54.25;99275.69;5089889;28;9591;-76
2023/08/19 00:30:29;;;;;;;;;61.50;50.25;;;;;24.61;54.50;99276.41;5081306;28;8829;-76
2023/08/19 00:32:57;;;;;;;;;54.25;44.50;;;;;24.62;54.10;99272.75;5093611;28;8857;-79
2023/08/19 00:35:26;;;;;;;;;59.75;47.25;;;;;24.62;54.02;99278.13;5089595;28;8826;-79
2023/08/19 00:37:55;;;;;;;;;57.25;47.75;;;;;24.48;54.63;99271.22;5073021;28;8838;-77
2023/08/19 00:40:26;;;;;;;;;60.25;49.00;;;;;24.47;54.68;99274.00;5056770;28;8872;-79
2023/08/19 00:42:54;;;;;;;;;61.75;50.25;;;;;24.17;56.03;99275.59;5071776;28;9019;-78
2023/08/19 00:45:23;;;;;;;;;62.75;51.25;;;;;23.98;56.29;99273.53;5072150;28;8850;-79
2023/08/19 00:47:52;;;;;;;;;62.25;50.50;;;;;23.69;57.20;99273.19;5072425;28;8833;-79
2023/08/19 00:50:22;;;;;;;;;65.33;52.67;;;;;23.52;58.25;99280.75;5089612;28;8886;-80
2023/08/19 00:52:51;;;;;;;;;63.67;52.33;;;;;23.45;58.32;99279.53;5094405;28;9145;-79
2023/08/19 00:55:20;;;;;;;;;70.00;56.67;;;;;23.35;58.84;99270.47;5092219;28;8944;-77
2023/08/19 00:57:51;;;;;;;;;68.00;56.67;;;;;23.39;58.71;99266.56;5058287;28;9433;-79
2023/08/19 01:00:20;;;;;;;;;68.00;56.33;;;;;23.44;58.96;99263.56;5110338;28;9314;-78
2023/08/19 01:02:49;;;;;;;;;69.67;58.00;;;;;23.49;58.59;99259.53;5040959;28;9410;-79
2023/08/19 01:05:21;;;;;;;;;73.00;62.75;;;;;23.54;58.70;99261.84;5109888;28;9377;-79
2023/08/19 01:07:55;;;;;;;;;71.75;60.00;;;;;23.64;58.05;99260.16;5099461;28;9796;-79
2023/08/19 01:10:35;;;;;;;;;71.25;61.25;;;;;23.73;58.29;99263.91;5071764;28;9471;-79
2023/08/19 01:13:12;;;;;;;;;72.25;62.00;;;;;23.53;59.40;99265.53;5089614;28;9854;-80
2023/08/19 01:15:51;;;;;;;;;77.00;70.25;;;;;23.51;59.50;99262.94;5071253;28;9905;-77
2023/08/19 01:18:24;;;;;;;;;77.00;70.25;;;;;23.26;60.40;99260.47;5089650;28;10244;-79
2023/08/19 01:20:55;;;;;;;;;78.75;74.00;;;;;23.17;60.70;99264.75;5071627;28;10104;-80
2023/08/19 01:23:31;;;;;;;;;79.00;74.50;;;;;23.07;61.50;99261.94;5090297;28;10255;-77
2023/08/19 01:26:02;;;;;;;;;75.75;68.00;;;;;22.95;62.04;99261.03;5095491;28;10727;-78
2023/08/19 01:28:31;;;;;;;;;78.25;73.50;;;;;23.02;61.59;99264.13;5077556;28;11334;-79
2023/08/19 01:31:00;;;;;;;;;78.50;73.00;;;;;23.12;61.28;99264.25;5087713;28;10395;-80
2023/08/19 01:33:32;;;;;;;;;76.75;68.75;;;;;23.15;60.90;99269.38;5070695;28;11152;-78
2023/08/19 01:36:15;;;;;;;;;76.75;69.75;;;;;23.37;60.23;99263.16;5020222;28;10968;-80
2023/08/19 01:38:50;;;;;;;;;73.50;64.50;;;;;23.38;60.19;99262.22;5070114;28;10075;-79
2023/08/19 01:41:23;;;;;;;;;72.00;62.25;;;;;23.43;60.15;99261.81;5053903;28;9868;-80
2023/08/19 01:43:53;;;;;;;;;71.75;61.50;;;;;23.43;59.79;99256.47;5070034;28;10571;-78
2023/08/19 01:46:22;;;;;;;;;71.00;60.50;;;;;23.43;59.59;99265.38;5086914;28;9901;-77
2023/08/19 01:48:50;;;;;;;;;71.00;58.00;;;;;23.49;59.25;99266.72;5069874;28;9635;-78
2023/08/19 01:51:20;;;;;;;;;70.25;59.75;;;;;23.46;58.87;99272.31;5069750;28;9416;-81
2023/08/19 01:53:48;;;;;;;;;67.33;56.00;;;;;23.39;59.59;99267.47;5069851;28;9471;-80
2023/08/19 01:56:20;;;;;;;;;68.00;55.00;;;;;23.39;59.29;99278.19;5086707;28;9087;-81
2023/08/19 01:58:49;;;;;;;;;65.50;52.50;;;;;23.38;58.85;99268.41;5036837;28;8934;-81
2023/08/19 02:01:18;;;;;;;;;63.50;52.25;;;;;23.35;59.34;99270.47;5086378;28;8850;-80
2023/08/19 02:03:47;;;;;;;;;64.00;52.50;;;;;23.36;58.88;99273.06;5070461;28;8992;-80
2023/08/19 02:06:16;;;;;;;;;58.00;47.50;;;;;23.33;59.00;99272.44;5089255;28;8848;-78
2023/08/19 02:08:45;;;;;;;;;58.50;48.25;;;;;23.33;58.95;99275.97;5054642;28;8864;-80
2023/08/19 02:11:14;;;;;;;;;60.50;49.00;;;;;23.19;59.29;99274.38;5070867;28;8883;-79
2023/08/19 02:13:45;;;;;;;;;63.00;51.75;;;;;22.96;60.35;99281.53;5071298;28;9005;-80
2023/08/19 02:16:14;;;;;;;;;62.67;51.67;;;;;22.93;60.57;99286.25;5089165;28;8834;-77
2023/08/19 02:18:43;;;;;;;;;66.67;54.33;;;;;22.98;60.23;99279.59;5074201;28;8994;-79
2023/08/19 02:21:12;;;;;;;;;66.67;53.33;;;;;23.03;60.41;99287.25;5095615;28;8950;-80
2023/08/19 02:23:40;;;;;;;;;69.33;55.33;;;;;22.91;61.16;99283.69;5093769;28;9999;-79
2023/08/19 02:26:09;;;;;;;;;63.33;52.33;;;;;23.00;60.82;99280.31;5080028;28;9090;-78
2023/08/19 02:28:39;;;;;;;;;67.00;55.00;;;;;23.05;61.11;99273.75;5095732;28;9028;-81
2023/08/19 02:31:10;;;;;;;;;68.00;54.67;;;;;23.02;61.38;99280.19;5089589;28;9233;-79
2023/08/19 02:33:41;;;;;;;;;67.67;56.00;;;;;22.94;61.84;99271.88;5067402;28;9017;-79
2023/08/19 02:36:10;;;;;;;;;65.50;53.50;;;;;22.89;61.91;99266.88;5070509;28;9306;-79
2023/08/19 02:38:40;;;;;;;;;67.00;53.33;;;;;22.78;62.73;99267.66;5040501;28;8850;-78
2023/08/19 02:41:09;;;;;;;;;64.00;51.75;;;;;22.83;62.57;99261.97;5057722;28;9754;-80
2023/08/19 02:43:39;;;;;;;;;68.00;53.67;;;;;22.80;62.84;99257.69;5091250;28;8862;-81
2023/08/19 02:46:09;;;;;;;;;66.75;52.50;;;;;22.71;63.32;99257.53;5074068;28;9177;-79
2023/08/19 02:48:39;;;;;;;;;65.50;52.00;;;;;22.68;63.60;99257.78;5069932;28;8845;-78
2023/08/19 02:51:07;;;;;;;;;61.00;49.25;;;;;22.71;63.51;99252.19;5074365;28;8872;-78
2023/08/19 02:53:36;;;;;;;;;64.25;52.25;;;;;22.70;63.56;99255.84;5074218;28;8846;-81
2023/08/19 02:56:06;;;;;;;;;62.50;50.25;;;;;22.72;63.32;99253.91;5056576;28;8880;-78
2023/08/19 02:58:35;;;;;;;;;64.00;50.25;;;;;22.78;63.26;99256.09;5092528;28;8838;-81
2023/08/19 03:01:04;;;;;;;;;62.50;50.50;;;;;22.72;63.52;99256.56;5092549;28;8842;-79
2023/08/19 03:03:34;;;;;;;;;64.50;52.25;;;;;22.78;63.18;99256.09;5092082;28;8873;-78
2023/08/19 03:06:04;;;;;;;;;63.00;51.75;;;;;22.76;63.30;99253.53;5092344;28;8853;-81
2023/08/19 03:08:33;;;;;;;;;65.00;52.50;;;;;22.75;63.33;99262.56;5075716;28;8902;-78
2023/08/19 03:11:02;;;;;;;;;63.75;51.75;;;;;22.58;64.15;99271.88;5053260;28;8950;-78
2023/08/19 03:13:31;;;;;;;;;63.50;51.75;;;;;22.67;63.56;99272.16;5075386;28;8857;-78
2023/08/19 03:16:01;;;;;;;;;70.33;58.67;;;;;22.68;63.49;99265.81;5091426;28;9643;-80
2023/08/19 03:18:30;;;;;;;;;113.00;107.00;;;;;22.72;63.35;99272.66;5046315;28;9479;-80
2023/08/19 03:21:01;;;;;;;;;67.67;55.67;;;;;22.76;63.14;99276.81;5097531;28;11590;-77
2023/08/19 03:23:50;;;;;;;;;64.25;52.25;;;;;22.73;63.39;99283.25;5058201;28;9068;-82
2023/08/19 03:26:19;;;;;;;;;59.00;48.25;;;;;22.70;63.35;99280.81;5069690;28;8878;-80
2023/08/19 03:28:48;;;;;;;;;62.00;50.25;;;;;22.66;63.61;99281.16;5035851;28;8839;-78
2023/08/19 03:31:17;;;;;;;;;65.00;52.25;;;;;22.67;63.41;99297.09;5052308;28;8919;-80
2023/08/19 03:33:46;;;;;;;;;67.50;53.75;;;;;22.63;63.63;99294.78;5052471;28;8870;-78
2023/08/19 03:36:16;;;;;;;;;63.50;51.75;;;;;22.64;63.50;99294.69;5052343;28;8882;-79
2023/08/19 03:38:45;;;;;;;;;66.00;53.00;;;;;22.68;63.36;99289.94;5019503;28;8873;-79
2023/08/19 03:41:14;;;;;;;;;72.00;61.00;;;;;22.66;63.10;99298.09;5051946;28;9250;-80
2023/08/19 03:43:43;;;;;;;;;64.50;52.00;;;;;22.43;64.30;99305.19;5019181;28;9827;-79
2023/08/19 03:46:12;;;;;;;;;64.50;52.25;;;;;22.48;64.04;99307.50;5003135;28;8843;-81
2023/08/19 03:48:41;;;;;;;;;61.50;49.75;;;;;22.31;64.65;99311.44;5018709;28;8846;-78
2023/08/19 03:51:09;;;;;;;;;60.75;49.75;;;;;22.33;64.58;99309.50;5052002;28;8866;-80
2023/08/19 03:53:40;;;;;;;;;62.00;50.75;;;;;22.46;64.14;99314.81;5051720;28;9658;-80
2023/08/19 03:56:09;;;;;;;;;64.50;52.75;;;;;22.50;63.77;99324.31;5072089;28;8896;-79
2023/08/19 03:58:37;;;;;;;;;65.75;51.75;;;;;22.55;63.50;99324.81;5039151;28;8854;-81
2023/08/19 04:01:07;;;;;;;;;57.75;47.25;;;;;22.58;63.29;99328.13;5055649;28;8853;-81
2023/08/19 04:03:40;;;;;;;;;67.25;54.50;;;;;22.47;63.97;99332.56;5089575;28;8849;-81
2023/08/19 04:06:11;;;;;;;;;64.00;52.25;;;;;22.44;63.86;99336.34;5089941;28;8935;-78
2023/08/19 04:08:41;;;;;;;;;68.75;56.75;;;;;22.53;63.44;99337.47;5024761;28;8845;-78
2023/08/19 04:11:10;;;;;;;;;59.75;47.75;;;;;22.63;63.24;99326.94;5094834;28;8968;-81
2023/08/19 04:13:39;;;;;;;;;70.00;58.00;;;;;22.66;63.15;99332.06;5079603;28;8872;-79
2023/08/19 04:16:08;;;;;;;;;63.50;51.75;;;;;22.67;63.02;99334.63;5080533;28;9666;-79
2023/08/19 04:18:39;;;;;;;;;58.75;49.00;;;;;22.67;63.04;99334.63;5042895;28;8874;-80
2023/08/19 04:21:10;;;;;;;;;62.00;50.00;;;;;22.74;62.78;99329.66;5073136;28;8858;-79
2023/08/19 04:23:42;;;;;;;;;58.50;47.50;;;;;22.77;62.64;99334.81;5091161;28;8870;-79
2023/08/19 04:26:11;;;;;;;;;63.25;50.25;;;;;22.77;62.64;99334.81;5073000;28;8918;-78
2023/08/19 04:28:40;;;;;;;;;59.50;48.25;;;;;22.88;62.27;99332.13;5089810;28;8877;-78
2023/08/19 04:31:10;;;;;;;;;57.00;47.25;;;;;22.92;62.27;99332.78;5072540;28;8849;-78
2023/08/19 04:33:47;;;;;;;;;60.75;49.50;;;;;22.92;62.05;99322.06;5089015;28;8858;-78
2023/08/19 04:36:16;;;;;;;;;58.50;48.25;;;;;22.95;61.72;99321.84;5072535;28;9028;-79
2023/08/19 04:38:46;;;;;;;;;54.00;45.25;;;;;22.97;62.02;99328.78;5090442;28;8880;-80
2023/08/19 04:41:16;;;;;;;;;56.75;47.50;;;;;23.02;61.72;99333.81;5072161;28;8869;-79
2023/08/19 04:43:47;;;;;;;;;56.25;46.75;;;;;22.99;61.94;99334.03;5039076;28;8857;-79
2023/08/19 04:46:17;;;;;;;;;58.50;47.50;;;;;23.08;61.69;99333.34;5072189;28;8846;-79
2023/08/19 04:48:47;;;;;;;;;57.50;47.25;;;;;23.12;61.63;99344.69;5072094;28;8895;-79
2023/08/19 04:51:17;;;;;;;;;58.00;47.25;;;;;23.16;61.35;99348.84;5072060;28;8846;-80
2023/08/19 04:53:47;;;;;;;;;56.75;47.00;;;;;23.25;61.34;99344.59;5090469;28;8933;-78
2023/08/19 04:56:16;;;;;;;;;53.25;44.50;;;;;23.21;61.51;99356.53;5089986;28;8853;-80
2023/08/19 04:58:46;;;;;;;;;56.25;46.25;;;;;23.28;61.30;99355.94;5082208;28;8977;-79
2023/08/19 05:01:15;;;;;;;;;77.75;72.50;;;;;23.31;61.17;99366.41;5091193;28;8974;-79
2023/08/19 05:03:45;;;;;;;;;58.50;48.00;;;;;23.43;60.77;99367.31;5079261;28;9944;-77
2023/08/19 05:06:14;;;;;;;;;57.00;46.00;;;;;23.51;60.59;99375.63;5075577;28;8859;-78
2023/08/19 05:08:44;;;;;;;;;55.50;46.25;;;;;23.37;61.12;99371.34;5056150;28;8851;-79
2023/08/19 05:11:14;;;;;;;;;54.75;45.50;;;;;23.56;60.91;99369.91;5045131;28;8847;-80
2023/08/19 05:13:46;;;;;;;;;54.50;44.25;;;;;23.62;60.83;99358.72;5050527;28;8863;-79
2023/08/19 05:16:16;;;;;;;;;56.50;46.25;;;;;23.39;61.41;99358.66;5066198;28;8859;-79
2023/08/19 05:19:03;;;;;;;;;55.25;46.00;;;;;23.77;60.33;99359.31;5050292;28;8844;-79
2023/08/19 05:21:33;;;;;;;;;54.75;45.00;;;;;23.87;59.99;99359.47;5066305;28;8859;-78
2023/08/19 05:24:03;;;;;;;;;55.50;46.50;;;;;23.50;61.06;99365.00;5066433;28;8831;-80
2023/08/19 05:26:36;;;;;;;;;55.25;45.75;;;;;23.04;62.93;99369.41;5066751;28;8883;-78
2023/08/19 05:29:05;;;;;;;;;55.00;45.25;;;;;23.07;63.13;99370.97;5066382;28;8859;-78
2023/08/19 05:31:34;;;;;;;;;55.50;45.50;;;;;23.43;62.29;99374.50;5066336;28;8871;-77
2023/08/19 05:34:04;;;;;;;;;51.75;43.25;;;;;23.69;60.89;99372.50;5066090;28;8896;-78
2023/08/19 05:36:32;;;;;;;;;60.25;49.75;;;;;24.01;60.20;99377.97;5055213;28;9522;-78
2023/08/19 05:39:02;;;;;;;;;59.50;48.50;;;;;24.05;59.55;99375.91;5089979;28;8838;-79
2023/08/19 05:41:30;;;;;;;;;51.75;44.00;;;;;24.15;59.76;99383.16;5089397;28;8858;-78
2023/08/19 05:44:01;;;;;;;;;56.75;45.25;;;;;24.38;59.31;99382.25;5053544;28;8888;-80
2023/08/19 05:46:30;;;;;;;;;61.25;50.25;;;;;24.38;59.18;99391.19;5070852;28;8888;-81
2023/08/19 05:48:59;;;;;;;;;57.50;46.25;;;;;24.38;58.81;99387.63;5071887;28;8864;-80
2023/08/19 05:51:28;;;;;;;;;55.00;45.75;;;;;24.51;58.64;99386.50;5089466;28;8891;-80
2023/08/19 05:54:00;;;;;;;;;53.75;45.50;;;;;24.51;58.52;99388.34;5061595;28;8942;-77
2023/08/19 05:56:29;;;;;;;;;57.50;46.75;;;;;24.41;58.94;99382.84;5088874;28;8932;-80
2023/08/19 05:58:58;;;;;;;;;59.50;48.00;;;;;24.47;58.65;99387.75;5072793;28;8854;-80
2023/08/19 06:01:28;;;;;;;;;53.50;44.75;;;;;24.19;59.40;99382.88;5073936;28;8838;-78
2023/08/19 06:03:57;;;;;;;;;57.75;46.50;;;;;24.20;59.39;99389.97;5041104;28;8963;-80
2023/08/19 06:06:26;;;;;;;;;55.50;46.00;;;;;24.47;58.39;99395.81;5072713;28;8903;-79
2023/08/19 06:08:55;;;;;;;;;56.75;45.75;;;;;24.70;57.71;99406.50;5070869;28;8845;-80
2023/08/19 06:11:24;;;;;;;;;47.00;39.50;;;;;24.87;57.90;99403.28;5091271;28;8846;-78
2023/08/19 06:13:53;;;;;;;;;53.25;44.00;;;;;25.07;57.04;99406.13;5095424;28;8841;-79
2023/08/19 06:16:22;;;;;;;;;57.25;47.00;;;;;25.26;56.42;99405.44;5044005;28;8837;-80
2023/08/19 06:18:52;;;;;;;;;56.50;45.25;;;;;25.41;56.48;99408.69;5095217;28;8834;-81
2023/08/19 06:21:21;;;;;;;;;53.00;44.50;;;;;25.49;55.74;99416.94;5095248;28;8862;-80
2023/08/19 06:23:50;;;;;;;;;56.00;44.75;;;;;25.60;55.45;99414.19;5095350;28;8842;-78
2023/08/19 06:26:19;;;;;;;;;53.75;44.75;;;;;25.60;54.84;99419.56;5095200;28;8846;-79
2023/08/19 06:28:50;;;;;;;;;54.00;45.50;;;;;25.52;55.18;99417.53;5094908;28;8834;-78
2023/08/19 06:31:19;;;;;;;;;56.75;47.00;;;;;25.52;55.60;99416.69;5094857;28;8872;-77
2023/08/19 06:33:53;;;;;;;;;56.00;45.00;;;;;25.63;55.29;99434.63;5095248;28;8873;-79
2023/08/19 06:36:24;;;;;;;;;53.00;44.00;;;;;25.56;55.54;99434.28;5076647;28;8962;-79
2023/08/19 06:39:05;;;;;;;;;57.25;46.25;;;;;25.81;54.78;99437.56;5094852;28;8902;-78
2023/08/19 06:41:36;;;;;;;;;52.50;44.00;;;;;25.85;54.58;99433.59;5043566;28;8861;-78
2023/08/19 06:44:08;;;;;;;;;54.00;45.25;;;;;25.64;54.80;99437.19;5077336;28;8876;-78
2023/08/19 06:46:38;;;;;;;;;52.50;44.25;;;;;25.65;54.96;99432.66;5095199;28;8861;-77
2023/08/19 06:49:09;;;;;;;;;56.00;46.50;;;;;25.83;54.45;99435.56;5094972;28;8833;-79
2023/08/19 06:51:39;;;;;;;;;55.25;45.50;;;;;25.93;54.06;99435.66;5095191;28;8845;-79
2023/08/19 06:54:09;;;;;;;;;52.75;44.75;;;;;26.06;53.36;99442.53;5046496;28;8954;-77
2023/08/19 06:56:46;;;;;;;;;54.50;45.25;;;;;25.29;56.22;99434.78;5015311;28;9631;-79
2023/08/19 06:59:21;;;;;;;;;53.75;45.50;;;;;25.78;54.89;99440.53;5099654;28;9649;-79
2023/08/19 07:01:52;;;;;;;;;55.00;45.00;;;;;25.99;54.19;99441.38;5098954;28;8838;-78
2023/08/19 07:04:27;;;;;;;;;53.00;44.00;;;;;26.27;53.12;99441.66;5095811;28;8881;-79
2023/08/19 07:06:58;;;;;;;;;51.50;43.50;;;;;25.77;53.26;99450.44;5043355;28;9007;-79
2023/08/19 07:09:28;;;;;;;;;51.25;43.50;;;;;25.27;54.45;99451.03;5076526;28;8837;-78
2023/08/19 07:11:58;;;;;;;;;53.75;44.50;;;;;25.27;54.58;99451.03;5076179;28;8857;-79
2023/08/19 07:14:28;;;;;;;;;54.50;43.50;;;;;25.55;53.45;99450.56;5094623;28;8842;-80
2023/08/19 07:17:03;;;;;;;;;53.00;43.00;;;;;25.81;53.35;99462.63;5076707;28;8854;-79
2023/08/19 07:19:38;;;;;;;;;48.25;40.50;;;;;26.23;52.15;99457.22;5094721;28;8854;-78
2023/08/19 07:22:07;;;;;;;;;54.00;45.00;;;;;26.49;50.90;99459.47;5094811;28;8850;-77
2023/08/19 07:24:37;;;;;;;;;53.00;44.25;;;;;26.77;49.83;99476.72;5089014;28;9740;-77
2023/08/19 07:27:07;;;;;;;;;56.50;46.75;;;;;27.06;49.51;99473.22;5028907;28;8881;-79
2023/08/19 07:29:37;;;;;;;;;53.75;44.75;;;;;27.24;49.18;99487.75;4996345;28;8876;-79
2023/08/19 07:32:11;;;;;;;;;53.75;45.25;;;;;27.48;49.09;99482.91;4997019;28;9643;-77
2023/08/19 07:34:42;;;;;;;;;54.50;45.75;;;;;27.49;49.56;99484.63;5028712;28;8873;-78
2023/08/19 07:37:10;;;;;;;;;50.50;43.00;;;;;27.07;50.05;99496.53;5028457;28;8861;-78
2023/08/19 07:39:40;;;;;;;;;54.25;45.00;;;;;26.41;51.83;99500.53;5037746;28;8858;-79
2023/08/19 07:42:08;;;;;;;;;52.50;44.25;;;;;26.20;53.41;99499.75;5049637;28;8996;-78
2023/08/19 07:44:38;;;;;;;;;53.50;44.50;;;;;26.75;52.35;99502.13;5048100;28;8870;-79
2023/08/19 07:47:06;;;;;;;;;57.75;47.00;;;;;26.72;52.01;99499.69;5049155;28;9015;-79
2023/08/19 07:49:35;;;;;;;;;54.75;44.75;;;;;26.20;53.91;99513.22;5051853;28;8884;-79
2023/08/19 07:52:05;;;;;;;;;53.00;43.50;;;;;26.02;54.12;99502.19;5054831;28;8862;-78
2023/08/19 07:54:35;;;;;;;;;52.75;44.50;;;;;26.41;53.41;99513.19;5051073;28;8870;-78
2023/08/19 07:57:04;;;;;;;;;56.00;46.00;;;;;26.75;52.35;99505.66;5049095;28;8884;-77
2023/08/19 07:59:34;;;;;;;;;57.00;47.75;;;;;27.07;51.44;99504.63;5093789;28;8927;-80
2023/08/19 08:02:02;;;;;;;;;53.50;45.00;;;;;27.36;50.66;99501.94;5098558;28;8862;-79
2023/08/19 08:04:31;;;;;;;;;51.50;42.25;;;;;27.68;49.83;99508.91;5091391;28;8825;-77
2023/08/19 08:07:00;;;;;;;;;53.75;43.25;;;;;27.97;49.27;99503.50;5091309;28;8865;-78
2023/08/19 08:09:30;;;;;;;;;49.25;42.00;;;;;27.86;48.67;99503.66;5091383;28;8850;-79
2023/08/19 08:11:59;;;;;;;;;51.75;42.75;;;;;28.02;48.81;99503.03;5091107;28;9591;-77
2023/08/19 08:14:49;;;;;;;;;54.75;45.00;;;;;28.18;47.77;99491.66;5039852;28;9018;-79
2023/08/19 08:17:18;;;;;;;;;52.50;43.75;;;;;28.25;47.45;99502.72;5068129;28;8964;-77
2023/08/19 08:19:47;;;;;;;;;54.75;44.50;;;;;28.39;46.85;99497.69;5034854;28;8871;-79
2023/08/19 08:22:15;;;;;;;;;51.75;43.00;;;;;28.51;46.42;99509.16;5068064;28;9011;-77
2023/08/19 08:24:46;;;;;;;;;54.75;45.50;;;;;28.49;46.38;99504.91;5067309;28;8847;-77
2023/08/19 08:27:16;;;;;;;;;52.25;43.75;;;;;28.53;46.01;99496.31;5067767;28;8887;-80
2023/08/19 08:29:45;;;;;;;;;52.50;43.75;;;;;28.67;45.98;99495.03;5067937;28;8867;-79
2023/08/19 08:32:14;;;;;;;;;54.25;44.50;;;;;28.67;45.24;99496.84;5051071;28;8863;-78
2023/08/19 08:34:43;;;;;;;;;51.75;42.75;;;;;28.47;44.97;99483.41;5049624;28;9632;-79
2023/08/19 08:37:12;;;;;;;;;49.50;41.00;;;;;28.46;45.28;99497.94;5067457;28;8852;-78
2023/08/19 08:39:41;;;;;;;;;52.75;42.75;;;;;28.46;45.42;99494.38;5056336;28;8853;-78
2023/08/19 08:42:12;;;;;;;;;51.25;42.25;;;;;28.57;45.43;99486.94;5047187;28;8874;-77
2023/08/19 08:44:42;;;;;;;;;53.75;43.50;;;;;28.73;45.34;99497.13;5050903;28;8955;-79
2023/08/19 08:47:12;;;;;;;;;51.50;43.50;;;;;28.87;44.69;99490.34;5041196;28;8862;-80
2023/08/19 08:49:43;;;;;;;;;46.50;39.50;;;;;28.82;42.78;99483.69;5038161;28;8871;-79
2023/08/19 08:52:12;;;;;;;;;45.00;37.25;;;;;28.92;41.91;99489.91;5090311;28;8873;-78
2023/08/19 08:54:43;;;;;;;;;44.75;37.25;;;;;29.09;41.40;99486.34;5089806;28;8884;-78
2023/08/19 08:57:16;;;;;;;;;43.75;37.25;;;;;29.17;40.13;99477.50;5090027;28;9627;-79
2023/08/19 08:59:45;;;;;;;;;38.25;34.00;;;;;29.04;38.95;99487.81;5071850;28;8884;-77
2023/08/19 09:02:15;;;;;;;;;40.50;35.25;;;;;28.99;39.09;99480.16;5087609;28;8854;-78
2023/08/19 09:04:47;;;;;;;;;37.50;34.00;;;;;29.05;39.36;99482.25;5089442;28;8834;-79
2023/08/19 09:07:25;;;;;;;;;40.75;34.50;;;;;29.12;39.00;99480.63;5089052;28;9163;-78
2023/08/19 09:09:55;;;;;;;;;40.50;35.50;;;;;29.06;38.50;99477.69;5020592;28;9564;-80
2023/08/19 09:12:27;;;;;;;;;40.25;34.75;;;;;29.02;38.92;99471.72;5088912;28;8846;-78
2023/08/19 09:15:02;;;;;;;;;38.75;34.50;;;;;29.13;39.17;99476.91;5038340;28;10246;-79
2023/08/19 09:17:33;;;;;;;;;42.50;35.50;;;;;28.92;38.91;99476.38;5088942;28;8906;-78
2023/08/19 09:20:03;;;;;;;;;40.50;35.00;;;;;29.02;38.47;99471.72;5089097;28;8849;-78
2023/08/19 09:22:31;;;;;;;;;37.00;33.75;;;;;29.15;37.88;99474.91;5036596;28;8866;-80
2023/08/19 09:25:06;;;;;;;;;34.75;32.25;;;;;29.13;37.48;99470.66;5088912;28;8849;-77
2023/08/19 09:27:37;;;;;;;;;34.50;31.50;;;;;29.10;37.39;99471.81;5070090;28;9536;-79
2023/08/19 09:30:07;;;;;;;;;33.50;31.00;;;;;28.98;37.02;99473.88;5070822;28;8884;-78
2023/08/19 09:32:37;;;;;;;;;34.00;31.75;;;;;29.17;36.67;99467.50;5088984;28;8938;-76
2023/08/19 09:35:09;;;;;;;;;38.00;32.00;;;;;29.37;38.03;99464.66;5088983;28;8930;-79
2023/08/19 09:37:39;;;;;;;;;36.00;33.00;;;;;29.39;37.10;99465.34;5089703;28;8841;-77
2023/08/19 09:40:11;;;;;;;;;26.25;25.50;;;;;29.46;36.18;99465.56;5092025;28;8864;-78
2023/08/19 09:42:47;;;;;;;;;30.75;29.75;;;;;29.47;35.96;99468.13;5091138;28;8865;-78
2023/08/19 09:45:18;;;;;;;;;30.25;28.75;;;;;29.27;35.93;99463.88;5090840;28;8873;-78
2023/08/19 09:47:49;;;;;;;;;37.00;32.25;;;;;29.25;36.67;99458.59;5088626;28;9607;-77
2023/08/19 09:50:20;;;;;;;;;28.25;25.75;;;;;29.44;36.55;99465.69;5054118;28;8846;-78
2023/08/19 09:52:54;;;;;;;;;33.00;30.50;;;;;29.57;35.71;99463.44;5088754;28;8841;-78
2023/08/19 09:55:24;;;;;;;;;30.25;29.25;;;;;29.62;35.75;99462.97;5036609;28;8830;-78
2023/08/19 09:57:56;;;;;;;;;31.00;29.00;;;;;29.67;35.45;99466.13;5070287;28;8842;-77
2023/08/19 10:00:25;;;;;;;;;28.25;27.25;;;;;29.58;35.28;99461.59;5052761;28;8884;-78
2023/08/19 10:02:56;;;;;;;;;27.50;26.25;;;;;29.43;34.59;99466.72;5088580;28;8946;-79
2023/08/19 10:05:28;;;;;;;;;27.75;27.75;;;;;29.33;35.50;99457.81;5089316;28;8960;-77
2023/08/19 10:08:08;;;;;;;;;26.50;26.50;;;;;29.39;35.20;99457.22;5089303;28;8881;-77
2023/08/19 10:10:40;;;;;;;;;28.25;28.25;;;;;29.23;35.83;99473.31;5088282;28;9077;-79
2023/08/19 10:13:13;;;;;;;;;26.50;26.50;;;;;29.32;35.50;99466.97;5070248;28;8854;-79
2023/08/19 10:15:44;;;;;;;;;27.75;27.75;;;;;29.32;34.93;99461.56;5088682;28;8830;-78
2023/08/19 10:18:19;;;;;;;;;27.00;26.75;;;;;29.46;34.83;99470.97;5070118;28;8861;-77
2023/08/19 10:20:53;;;;;;;;;23.40;23.40;;;;;29.60;34.67;99475.84;5088551;28;8837;-77
2023/08/19 10:23:24;;;;;;;;;28.00;27.00;;;;;29.50;34.18;99458.81;5088185;28;9622;-80
2023/08/19 10:25:54;;;;;;;;;22.80;22.40;;;;;29.32;34.42;99458.84;5087875;28;8946;-77
2023/08/19 10:28:28;;;;;;;;;25.00;24.00;;;;;29.42;34.20;99461.47;5037443;28;8869;-78
2023/08/19 10:31:08;;;;;;;;;26.50;26.50;;;;;29.47;34.10;99459.16;5088763;28;8849;-79
2023/08/19 10:33:43;;;;;;;;;24.00;24.00;;;;;29.60;33.02;99458.75;5056164;28;9681;-79
2023/08/19 10:36:16;;;;;;;;;22.80;22.60;;;;;29.37;32.71;99459.25;5093355;28;8826;-79
2023/08/19 10:38:47;;;;;;;;;22.40;22.40;;;;;29.50;33.27;99456.09;5093427;28;8842;-79
2023/08/19 10:41:23;;;;;;;;;24.40;23.20;;;;;29.59;32.70;99452.44;5092695;28;8941;-79
2023/08/19 10:43:59;;;;;;;;;26.80;25.60;;;;;29.70;32.50;99444.09;5091279;28;8972;-76
2023/08/19 10:46:30;;;;;;;;;21.60;21.60;;;;;29.70;32.65;99445.97;5098193;28;8914;-76
2023/08/19 10:48:59;;;;;;;;;23.50;23.25;;;;;29.81;31.70;99448.41;5090481;28;8841;-81
2023/08/19 10:51:50;;;;;;;;;23.80;23.20;;;;;29.90;31.80;99446.63;5088744;28;8838;-79
2023/08/19 10:54:27;;;;;;;;;23.00;22.60;;;;;29.91;32.31;99440.16;5069282;28;8964;-79
2023/08/19 10:57:11;;;;;;;;;25.20;24.80;;;;;30.09;32.14;99440.13;5070427;28;8946;-77
2023/08/19 10:59:43;;;;;;;;;23.20;21.20;;;;;30.11;31.88;99444.34;5091246;28;8895;-77
2023/08/19 11:02:13;;;;;;;;;23.00;22.00;;;;;30.11;32.45;99441.66;5092060;28;8842;-79
2023/08/19 11:04:43;;;;;;;;;21.60;21.60;;;;;30.33;31.63;99440.25;5091840;28;8870;-81
2023/08/19 11:07:12;;;;;;;;;20.80;20.80;;;;;30.39;31.69;99432.47;5092123;28;9592;-79
2023/08/19 11:09:43;;;;;;;;;22.40;21.40;;;;;30.39;30.38;99425.19;5073562;28;8862;-79
2023/08/19 11:12:12;;;;;;;;;19.60;19.60;;;;;30.07;30.60;99429.44;5091641;28;8830;-79
2023/08/19 11:14:46;;;;;;;;;25.20;22.40;;;;;30.35;30.82;99429.22;5091429;28;8912;-80
2023/08/19 11:17:16;;;;;;;;;23.00;22.00;;;;;30.41;30.40;99422.28;5091405;28;8861;-78
2023/08/19 11:19:46;;;;;;;;;19.00;19.00;;;;;30.49;30.11;99425.91;5091025;28;8845;-79
2023/08/19 11:22:16;;;;;;;;;20.50;20.50;;;;;30.66;30.88;99425.97;5091738;28;8833;-79
2023/08/19 11:24:44;;;;;;;;;24.25;24.25;;;;;30.75;30.10;99434.97;5091710;28;9109;-78
2023/08/19 11:27:18;;;;;;;;;22.50;21.25;;;;;30.80;29.95;99416.34;5091372;28;8837;-77
2023/08/19 11:29:48;;;;;;;;;22.00;22.00;;;;;31.01;29.96;99418.56;5096599;28;8857;-78
2023/08/19 11:32:21;;;;;;;;;23.20;22.40;;;;;31.21;29.43;99419.13;5096710;28;8846;-78
2023/08/19 11:34:49;;;;;;;;;22.40;22.00;;;;;31.29;30.09;99419.13;5094765;28;8826;-78
2023/08/19 11:37:18;;;;;;;;;19.50;19.50;;;;;31.42;29.53;99408.59;5092948;28;8841;-78
2023/08/19 11:39:47;;;;;;;;;29.50;28.25;;;;;31.24;29.54;99413.34;5091453;28;8926;-76